createdAt,value
2019-02-27T00:02:53.758Z,65.50
2019-02-27T00:07:56.853Z,67.97
2019-02-27T00:13:00.512Z,86.43
2019-02-27T00:18:04.256Z,80.13
2019-02-27T00:23:07.941Z,171.47
2019-02-27T00:28:11.694Z,82.40
2019-02-27T00:33:15.364Z,223.17
2019-02-27T00:38:19.047Z,129.37
2019-02-27T00:43:22.717Z,133.47
2019-02-27T00:48:26.757Z,104.30
2019-02-27T00:53:30.547Z,105.90
2019-02-27T00:58:34.223Z,72.73
2019-02-27T01:03:37.916Z,216.10
2019-02-27T01:08:41.584Z,104.07
2019-02-27T01:13:45.253Z,235.70
2019-02-27T01:18:50.897Z,236.93
2019-02-27T01:23:54.326Z,144.03
2019-02-27T01:28:58.030Z,192.63
2019-02-27T01:34:01.703Z,140.53
2019-02-27T01:39:08.970Z,335.07
2019-02-27T01:44:13.635Z,278.00
2019-02-27T01:49:17.969Z,169.23
2019-02-27T01:54:21.658Z,257.13
2019-02-27T01:59:25.321Z,241.03
2019-02-27T02:04:29.021Z,166.30
2019-02-27T02:09:43.145Z,138.33
2019-02-27T02:15:12.792Z,135.87
2019-02-27T02:20:46.438Z,100.77
2019-02-27T02:26:34.757Z,92.30
2019-02-27T02:31:56.220Z,177.57
2019-02-27T02:37:18.482Z,145.27
2019-02-27T02:42:37.242Z,103.23
2019-02-27T02:48:06.389Z,187.47
2019-02-27T02:53:28.114Z,279.30
2019-02-27T02:59:08.502Z,193.67
2019-02-27T03:04:35.356Z,210.23
2019-02-27T03:10:07.157Z,233.47
2019-02-27T03:15:35.525Z,162.20
2019-02-27T03:20:52.383Z,114.30
2019-02-27T03:26:18.822Z,149.97
2019-02-27T03:32:01.059Z,168.10
2019-02-27T03:37:41.014Z,86.37
2019-02-27T03:43:10.214Z,142.17
2019-02-27T03:48:51.331Z,119.23
2019-02-27T03:54:48.743Z,157.07
2019-02-27T04:00:42.163Z,113.93
2019-02-27T04:06:29.265Z,132.90
2019-02-27T04:11:32.937Z,111.70
2019-02-27T04:16:38.112Z,84.30
2019-02-27T04:21:41.928Z,90.97
2019-02-27T04:26:45.596Z,52.73
2019-02-27T04:31:50.286Z,87.70
2019-02-27T04:36:53.950Z,89.07
2019-02-27T04:41:57.620Z,69.50
2019-02-27T04:47:01.260Z,52.77
2019-02-27T04:52:04.925Z,60.73
2019-02-27T04:57:08.889Z,62.53
2019-02-27T05:02:14.547Z,61.70
2019-02-27T05:07:20.375Z,56.53
2019-02-27T05:12:23.618Z,68.47
2019-02-27T05:17:27.286Z,69.07
2019-02-27T05:22:30.932Z,63.47
2019-02-27T05:27:34.601Z,88.27
2019-02-27T05:32:38.256Z,105.33
2019-02-27T05:37:41.919Z,77.43
2019-02-27T05:42:45.581Z,102.13
2019-02-27T05:47:49.246Z,124.70
2019-02-27T05:52:53.234Z,84.53
2019-02-27T05:57:56.982Z,64.93
2019-02-27T06:03:00.659Z,88.87
2019-02-27T06:08:04.401Z,82.90
2019-02-27T06:13:08.112Z,51.10
2019-02-27T06:18:11.792Z,73.73
2019-02-27T06:23:15.473Z,46.13
2019-02-27T06:28:19.430Z,50.67
2019-02-27T06:33:23.206Z,45.87
2019-02-27T06:38:27.076Z,44.47
2019-02-27T06:43:30.741Z,40.90
2019-02-27T06:48:34.433Z,56.73
2019-02-27T06:53:38.104Z,51.93
2019-02-27T06:58:42.110Z,63.33
2019-02-27T07:03:46.025Z,51.63
2019-02-27T07:08:49.706Z,75.97
2019-02-27T07:13:53.398Z,58.73
2019-02-27T07:18:57.061Z,54.33
2019-02-27T07:24:00.729Z,63.00
2019-02-27T07:29:04.409Z,52.50
2019-02-27T07:34:08.086Z,48.97
2019-02-27T07:39:11.865Z,48.17
2019-02-27T07:44:15.531Z,52.47
2019-02-27T07:49:19.192Z,56.77
2019-02-27T07:54:23.166Z,73.23
2019-02-27T07:59:26.829Z,69.77
2019-02-27T08:04:30.549Z,71.73
2019-02-27T08:09:34.201Z,55.63
2019-02-27T08:14:37.946Z,61.13
2019-02-27T08:19:42.887Z,57.53
2019-02-27T08:24:47.096Z,62.40
2019-02-27T08:29:50.783Z,64.43
2019-02-27T08:34:54.593Z,59.10
2019-02-27T08:39:58.269Z,54.80
2019-02-27T08:45:01.948Z,53.43
2019-02-27T08:50:08.080Z,57.50
2019-02-27T08:55:19.978Z,61.43
2019-02-27T09:00:20.341Z,78.10
2019-02-27T09:05:24.033Z,76.67
2019-02-27T09:10:30.414Z,70.17
2019-02-27T09:15:33.101Z,62.33
2019-02-27T09:20:36.787Z,63.40
2019-02-27T09:25:42.261Z,62.83
2019-02-27T09:30:46.185Z,63.63
2019-02-27T09:35:52.234Z,67.67
2019-02-27T09:40:55.922Z,67.07
2019-02-27T09:45:59.613Z,59.23
2019-02-27T09:51:03.309Z,54.43
2019-02-27T09:56:06.977Z,52.47
2019-02-27T10:01:16.118Z,58.60
2019-02-27T10:06:19.817Z,49.50
2019-02-27T10:11:23.509Z,50.03
2019-02-27T10:16:27.184Z,52.50
2019-02-27T10:21:31.166Z,52.90
2019-02-27T10:26:54.369Z,51.40
2019-02-27T10:31:58.320Z,49.70
2019-02-27T10:37:03.507Z,49.70
2019-02-27T10:42:07.306Z,53.63
2019-02-27T10:47:11.071Z,47.83
2019-02-27T10:52:14.765Z,45.63
2019-02-27T10:57:18.432Z,45.30
2019-02-27T11:02:23.528Z,40.23
2019-02-27T11:07:27.705Z,42.23
2019-02-27T11:12:31.457Z,39.77
2019-02-27T11:17:35.134Z,39.07
2019-02-27T11:22:39.194Z,36.90
2019-02-27T11:27:42.878Z,30.63
2019-02-27T11:32:46.557Z,29.43
2019-02-27T11:37:50.229Z,31.13
2019-02-27T11:42:53.905Z,30.90
2019-02-27T11:47:57.848Z,31.17
2019-02-27T11:53:02.712Z,31.23
2019-02-27T11:58:07.501Z,33.77
2019-02-27T12:03:11.999Z,27.60
2019-02-27T12:08:15.755Z,30.27
2019-02-27T12:13:19.510Z,30.87
2019-02-27T12:18:23.690Z,25.13
2019-02-27T12:23:29.761Z,26.90
2019-02-27T12:28:33.776Z,27.00
2019-02-27T12:33:38.758Z,22.87
2019-02-27T12:38:42.594Z,17.20
2019-02-27T12:43:46.357Z,17.73
2019-02-27T12:48:50.802Z,14.53
2019-02-27T12:53:55.179Z,15.00
2019-02-27T12:59:06.153Z,13.63
2019-02-27T13:04:09.849Z,15.27
2019-02-27T13:09:13.510Z,11.07
2019-02-27T13:14:17.225Z,11.53
2019-02-27T13:19:21.148Z,10.63
2019-02-27T13:24:24.835Z,16.47
2019-02-27T13:29:28.512Z,11.90
2019-02-27T13:34:32.181Z,11.07
2019-02-27T13:39:36.006Z,10.37
2019-02-27T13:44:39.660Z,11.10
2019-02-27T13:49:45.046Z,7.03
2019-02-27T13:54:48.281Z,8.23
2019-02-27T13:59:51.932Z,11.70
2019-02-27T14:04:57.028Z,9.90
2019-02-27T14:10:00.965Z,9.07
2019-02-27T14:15:05.016Z,10.17
2019-02-27T14:20:11.791Z,9.33
2019-02-27T14:25:20.285Z,10.57
2019-02-27T14:30:26.568Z,10.13
2019-02-27T14:35:35.246Z,8.97
2019-02-27T14:40:40.028Z,7.57
2019-02-27T14:45:41.257Z,8.43
2019-02-27T14:50:45.242Z,7.83
2019-02-27T14:55:48.897Z,8.20
2019-02-27T15:00:52.538Z,6.03
2019-02-27T15:05:56.187Z,5.30
2019-02-27T15:10:59.823Z,6.57
2019-02-27T15:16:03.853Z,7.43
2019-02-27T15:21:07.582Z,6.73
2019-02-27T15:26:13.899Z,6.27
2019-02-27T15:31:18.064Z,6.60
2019-02-27T15:36:23.045Z,8.67
2019-02-27T15:41:26.868Z,7.93
2019-02-27T15:46:30.531Z,8.77
2019-02-27T15:51:34.343Z,10.03
2019-02-27T15:56:41.486Z,9.37
2019-02-27T16:01:43.422Z,11.30
2019-02-27T16:06:47.084Z,14.77
2019-02-27T16:11:52.416Z,12.63
2019-02-27T16:16:57.573Z,13.43
2019-02-27T16:22:01.768Z,12.63
2019-02-27T16:27:05.751Z,11.50
2019-02-27T16:32:13.065Z,11.47
2019-02-27T16:37:14.788Z,12.93
2019-02-27T16:42:18.447Z,13.20
2019-02-27T16:47:23.761Z,20.40
2019-02-27T16:52:27.817Z,22.60
2019-02-27T16:57:31.473Z,22.27
2019-02-27T17:02:35.489Z,14.90
2019-02-27T17:07:41.252Z,15.70
2019-02-27T17:12:45.668Z,11.17
2019-02-27T17:17:50.588Z,13.47
2019-02-27T17:22:54.988Z,12.60
2019-02-27T17:27:58.966Z,13.17
2019-02-27T17:33:04.042Z,17.83
2019-02-27T17:38:07.991Z,23.90
2019-02-27T17:43:11.652Z,22.80
2019-02-27T17:48:15.678Z,23.13
2019-02-27T17:53:22.940Z,26.07
2019-02-27T17:58:25.817Z,24.93
2019-02-27T18:03:29.477Z,23.57
2019-02-27T18:08:33.121Z,27.07
2019-02-27T18:13:36.780Z,26.93
2019-02-27T18:18:43.371Z,23.97
2019-02-27T18:23:47.943Z,18.97
2019-02-27T18:28:51.652Z,23.53
2019-02-27T18:33:55.305Z,31.87
2019-02-27T18:39:02.532Z,31.30
2019-02-27T18:44:08.076Z,35.50
2019-02-27T18:49:11.913Z,28.03
2019-02-27T18:54:15.552Z,24.47
2019-02-27T18:59:19.193Z,20.33
2019-02-27T19:04:22.946Z,34.27
2019-02-27T19:09:29.336Z,39.43
2019-02-27T19:14:32.109Z,42.53
2019-02-27T19:19:35.950Z,31.67
2019-02-27T19:24:39.670Z,26.67
2019-02-27T19:29:43.313Z,21.43
2019-02-27T19:34:47.984Z,23.10
2019-02-27T19:39:53.348Z,26.20
2019-02-27T19:44:57.242Z,22.63
2019-02-27T19:50:00.886Z,18.37
2019-02-27T19:55:04.694Z,19.03
2019-02-27T20:00:10.056Z,19.00
2019-02-27T20:05:16.498Z,21.00
2019-02-27T20:10:19.572Z,18.80
2019-02-27T20:15:23.575Z,20.70
2019-02-27T20:20:27.303Z,21.77
2019-02-27T20:25:32.830Z,16.10
2019-02-27T20:30:37.853Z,17.50
2019-02-27T20:35:41.838Z,17.00
2019-02-27T20:40:45.710Z,18.30
2019-02-27T20:45:49.561Z,16.67
2019-02-27T20:50:55.213Z,17.27
2019-02-27T20:55:59.212Z,20.23
2019-02-27T21:01:03.381Z,18.27
2019-02-27T21:06:07.374Z,17.47
2019-02-27T21:11:11.011Z,18.50
2019-02-27T21:16:14.665Z,17.60
2019-02-27T21:21:19.858Z,17.53
2019-02-27T21:26:23.759Z,15.00
2019-02-27T21:31:27.793Z,18.07
2019-02-27T21:36:36.451Z,16.50
2019-02-27T21:41:36.925Z,16.83
2019-02-27T21:46:46.222Z,15.13
2019-02-27T21:51:48.206Z,20.17
2019-02-27T21:56:51.813Z,18.83
2019-02-27T22:01:57.023Z,18.80
2019-02-27T22:07:00.852Z,15.93
2019-02-27T22:12:04.493Z,16.83
2019-02-27T22:17:08.167Z,14.50
2019-02-27T22:22:11.877Z,17.47
2019-02-27T22:27:15.534Z,13.53
2019-02-27T22:32:19.178Z,14.43
2019-02-27T22:37:22.901Z,13.67
2019-02-27T22:42:26.541Z,12.53
2019-02-27T22:47:30.382Z,11.43
2019-02-27T22:52:34.027Z,12.07
2019-02-27T22:57:37.748Z,11.80
2019-02-27T23:02:41.391Z,11.70
2019-02-27T23:07:45.037Z,12.83
2019-02-27T23:12:48.685Z,12.27
2019-02-27T23:17:52.333Z,12.53
2019-02-27T23:22:55.982Z,11.47
2019-02-27T23:28:01.048Z,12.17
2019-02-27T23:33:05.409Z,13.33
2019-02-27T23:38:09.052Z,12.60
2019-02-27T23:43:12.772Z,10.53
2019-02-27T23:48:16.412Z,12.20
2019-02-27T23:53:20.063Z,10.33
2019-02-27T23:58:23.709Z,11.77
